Time;durP1;ratioP1;P1;durP2;ratioP2;P2;SDS_P1;SDS_P2;PMS_P1;PMS_P2;Temp;Humidity;BMP_temperature;BMP_pressure;BME280_temperature;BME280_humidity;BME280_pressure;Samples;Min_cycle;Max_cycle;Signal;HPM_P1;HPM_P2
2023/08/19 00:01:14;;;;;;;20.73;18.60;;;;;;;23.44;100.00;101199.94;5088489;28;20020;-62
2023/08/19 00:03:39;;;;;;;18.27;16.33;;;;;;;23.42;100.00;101210.81;5086459;28;20085;-61
2023/08/19 00:06:07;;;;;;;24.95;21.95;;;;;;;23.39;100.00;101202.16;5088475;28;20052;-62
2023/08/19 00:08:33;;;;;;;25.40;21.27;;;;;;;23.36;100.00;101200.56;5086953;28;20038;-60
2023/08/19 00:10:58;;;;;;;25.67;20.50;;;;;;;23.35;100.00;101201.53;5087986;28;20316;-62
2023/08/19 00:13:24;;;;;;;23.15;20.58;;;;;;;23.32;100.00;101196.41;5085367;28;20064;-62
2023/08/19 00:15:49;;;;;;;28.05;22.73;;;;;;;23.31;100.00;101197.41;5088223;28;20397;-59
2023/08/19 00:18:14;;;;;;;26.20;22.70;;;;;;;23.31;100.00;101200.09;5086967;28;20091;-62
2023/08/19 00:20:40;;;;;;;24.73;19.88;;;;;;;23.30;100.00;101193.00;5086555;28;20308;-59
2023/08/19 00:23:05;;;;;;;24.67;21.40;;;;;;;23.31;100.00;101194.69;5087409;28;20020;-58
2023/08/19 00:25:33;;;;;;;28.55;24.15;;;;;;;23.22;100.00;101190.94;5087005;28;20040;-61
2023/08/19 00:27:59;;;;;;;29.67;23.33;;;;;;;23.25;100.00;101192.53;5086267;28;20028;-59
2023/08/19 00:30:24;;;;;;;27.92;23.38;;;;;;;23.33;100.00;101193.59;5085923;28;20390;-60
2023/08/19 00:32:50;;;;;;;31.67;25.33;;;;;;;23.27;100.00;101180.66;5080337;28;20012;-60
2023/08/19 00:35:16;;;;;;;32.80;25.77;;;;;;;23.25;100.00;101179.06;5067612;28;20547;-60
2023/08/19 00:37:41;;;;;;;25.45;20.85;;;;;;;23.27;100.00;101179.81;5066963;28;20032;-60
2023/08/19 00:40:12;;;;;;;27.70;23.35;;;;;;;23.30;100.00;101183.09;5077162;28;20465;-60
2023/08/19 00:42:37;;;;;;;26.38;23.05;;;;;;;23.30;100.00;101180.41;5075408;28;20032;-59
2023/08/19 00:45:03;;;;;;;28.08;22.00;;;;;;;23.27;100.00;101174.44;5066166;28;20421;-59
2023/08/19 00:47:28;;;;;;;29.08;23.48;;;;;;;23.26;100.00;101173.56;5078320;28;20023;-59
2023/08/19 00:49:54;;;;;;;25.23;22.52;;;;;;;23.36;100.00;101162.94;5085776;28;20035;-60
2023/08/19 00:52:19;;;;;;;25.00;21.38;;;;;;;23.39;100.00;101170.75;5086168;28;20057;-60
2023/08/19 00:54:45;;;;;;;31.65;23.92;;;;;;;23.37;100.00;101167.34;5086655;28;20067;-60
2023/08/19 00:57:12;;;;;;;32.33;25.40;;;;;;;23.38;100.00;101162.84;5087415;28;20067;-60
2023/08/19 00:59:37;;;;;;;29.65;25.52;;;;;;;23.39;100.00;101165.38;5084580;28;20482;-60
2023/08/19 01:02:03;;;;;;;31.70;25.15;;;;;;;23.37;100.00;101156.59;5084972;28;20097;-59
2023/08/19 01:04:28;;;;;;;32.45;26.10;;;;;;;23.33;100.00;101155.13;5086464;28;20462;-58
2023/08/19 01:06:57;;;;;;;31.70;25.25;;;;;;;23.37;100.00;101150.34;5085929;28;20096;-61
2023/08/19 01:09:42;;;;;;;35.85;25.17;;;;;;;23.38;100.00;101147.53;5085053;28;20031;-60
2023/08/19 01:12:13;;;;;;;35.03;25.75;;;;;;;23.38;100.00;101150.22;5086647;28;20035;-60
2023/08/19 01:14:57;;;;;;;31.75;25.33;;;;;;;23.45;100.00;101142.50;5085857;28;20024;-60
2023/08/19 01:17:25;;;;;;;28.83;24.65;;;;;;;23.51;100.00;101143.81;5085934;28;20036;-60
2023/08/19 01:19:51;;;;;;;30.65;22.60;;;;;;;23.53;100.00;101147.22;5084563;28;20039;-60
2023/08/19 01:22:24;;;;;;;27.10;22.88;;;;;;;23.55;100.00;101143.44;5084738;28;20393;-60
2023/08/19 01:24:50;;;;;;;29.73;24.92;;;;;;;23.53;100.00;101140.00;5085583;28;20024;-61
2023/08/19 01:27:23;;;;;;;27.48;22.88;;;;;;;23.54;100.00;101147.09;5087790;28;20146;-61
2023/08/19 01:29:49;;;;;;;33.08;23.85;;;;;;;23.54;100.00;101141.72;5093989;28;20505;-61
2023/08/19 01:32:15;;;;;;;25.05;22.35;;;;;;;23.62;100.00;101142.91;5086954;28;20476;-60
2023/08/19 01:34:40;;;;;;;29.02;24.65;;;;;;;23.64;100.00;101133.72;5085241;28;20024;-61
2023/08/19 01:37:11;;;;;;;32.92;24.90;;;;;;;23.63;100.00;101133.84;5085775;28;20027;-59
2023/08/19 01:39:37;;;;;;;25.85;21.63;;;;;;;23.67;100.00;101132.59;5084930;28;20117;-59
2023/08/19 01:42:03;;;;;;;28.45;22.20;;;;;;;23.67;100.00;101122.72;5086774;28;20126;-59
2023/08/19 01:44:28;;;;;;;31.48;23.45;;;;;;;23.70;100.00;101125.13;5084610;28;20032;-58
2023/08/19 01:46:54;;;;;;;24.75;21.38;;;;;;;23.75;100.00;101123.88;5086139;28;20039;-59
2023/08/19 01:49:19;;;;;;;23.58;20.55;;;;;;;23.79;100.00;101123.50;5078777;28;20079;-58
2023/08/19 01:51:45;;;;;;;25.48;20.25;;;;;;;23.83;100.00;101130.31;5066771;28;20036;-55
2023/08/19 01:54:10;;;;;;;23.25;20.27;;;;;;;23.88;100.00;101129.03;5071853;28;20020;-61
2023/08/19 01:56:36;;;;;;;21.27;18.98;;;;;;;23.92;100.00;101125.09;5087497;28;20600;-60
2023/08/19 01:59:02;;;;;;;24.55;20.85;;;;;;;23.92;100.00;101125.97;5085673;28;20028;-60
2023/08/19 02:01:27;;;;;;;24.75;20.48;;;;;;;23.90;100.00;101124.41;5087611;28;20024;-60
2023/08/19 02:03:52;;;;;;;26.70;20.90;;;;;;;23.93;100.00;101124.13;5086560;28;20028;-60
2023/08/19 02:06:18;;;;;;;27.77;20.73;;;;;;;23.89;100.00;101126.22;5087067;28;20020;-60
2023/08/19 02:08:43;;;;;;;28.02;22.20;;;;;;;23.87;100.00;101122.81;5085093;28;20024;-59
2023/08/19 02:11:08;;;;;;;22.33;19.30;;;;;;;23.88;100.00;101123.66;5087072;28;20076;-60
2023/08/19 02:13:34;;;;;;;34.05;23.52;;;;;;;23.89;100.00;101112.78;5086230;28;20044;-60
2023/08/19 02:15:59;;;;;;;27.25;22.33;;;;;;;23.86;100.00;101115.72;5086855;28;20032;-60
2023/08/19 02:18:25;;;;;;;27.27;21.95;;;;;;;23.88;100.00;101113.75;5086292;28;20024;-59
2023/08/19 02:20:51;;;;;;;23.67;19.63;;;;;;;23.87;100.00;101109.34;5093243;28;20044;-61
2023/08/19 02:23:16;;;;;;;26.15;22.13;;;;;;;23.83;100.00;101110.59;5106599;28;20043;-58
2023/08/19 02:25:42;;;;;;;27.35;23.15;;;;;;;23.83;100.00;101103.41;5093925;28;20412;-58
2023/08/19 02:28:07;;;;;;;26.15;21.85;;;;;;;23.84;100.00;101105.09;5085698;28;20123;-61
2023/08/19 02:30:32;;;;;;;30.77;23.35;;;;;;;23.79;100.00;101088.53;5092707;28;20030;-60
2023/08/19 02:33:11;;;;;;;26.45;23.10;;;;;;;23.83;100.00;101097.16;5087260;28;20028;-59
2023/08/19 02:36:05;;;;;;;25.77;22.38;;;;;;;23.83;100.00;101094.47;5086106;28;20434;-61
2023/08/19 02:54:28;;;;;;;25.00;21.30;;;;;;;23.76;100.00;101087.91;5069451;28;20627;-60
2023/08/19 02:56:53;;;;;;;27.58;21.88;;;;;;;23.75;100.00;101091.59;5073658;28;20012;-59
2023/08/19 02:59:18;;;;;;;22.55;20.00;;;;;;;23.72;100.00;101098.94;5088884;28;20059;-60
2023/08/19 03:01:46;;;;;;;27.75;23.15;;;;;;;23.71;100.00;101097.25;5081084;28;20025;-60
2023/08/19 03:04:11;;;;;;;33.00;23.30;;;;;;;23.71;100.00;101089.19;5070846;28;20032;-56
2023/08/19 03:06:37;;;;;;;27.63;21.90;;;;;;;23.78;100.00;101077.88;5075701;28;20020;-61
2023/08/19 03:16:19;;;;;;;27.63;24.08;;;;;;;23.72;100.00;101090.88;5089298;28;20585;-63
2023/08/19 03:18:45;;;;;;;25.13;21.33;;;;;;;23.70;100.00;101082.09;5090170;28;20363;-60
2023/08/19 03:21:10;;;;;;;26.65;23.67;;;;;;;23.60;100.00;101082.03;5090912;28;20047;-61
2023/08/19 03:23:36;;;;;;;24.67;21.80;;;;;;;23.59;100.00;101079.47;5072278;28;20130;-61
2023/08/19 03:26:02;;;;;;;31.17;24.33;;;;;;;23.52;100.00;101068.41;5090627;28;20112;-62
2023/08/19 03:28:28;;;;;;;29.55;24.08;;;;;;;23.54;100.00;101069.09;5088770;28;20032;-61
2023/08/19 03:30:53;;;;;;;28.27;23.45;;;;;;;23.56;100.00;101063.59;5090105;28;20520;-61
2023/08/19 03:33:18;;;;;;;28.00;22.67;;;;;;;23.51;100.00;101063.16;5089227;28;20123;-61
2023/08/19 03:35:44;;;;;;;30.88;25.13;;;;;;;23.43;100.00;101071.88;5088221;28;20103;-62
2023/08/19 03:38:09;;;;;;;27.08;21.98;;;;;;;23.49;100.00;101079.41;5076359;28;20024;-60
2023/08/19 03:40:35;;;;;;;28.90;22.80;;;;;;;23.44;100.00;101084.31;5069892;28;20025;-62
2023/08/19 03:43:00;;;;;;;29.13;22.48;;;;;;;23.47;100.00;101079.53;5077863;28;20043;-63
2023/08/19 03:45:44;;;;;;;30.08;24.00;;;;;;;23.39;100.00;101065.88;5089317;28;20023;-62
2023/08/19 03:49:30;;;;;;;29.17;22.95;;;;;;;23.44;100.00;101074.44;5077972;28;20519;-63
2023/08/19 03:54:40;;;;;;;26.30;22.77;;;;;;;23.54;100.00;101076.34;5069891;28;20067;-61
2023/08/19 03:57:05;;;;;;;25.70;21.63;;;;;;;23.55;100.00;101078.03;5070040;28;20095;-62
2023/08/19 03:59:31;;;;;;;24.80;20.40;;;;;;;23.58;100.00;101081.31;5069167;28;20488;-60
2023/08/19 04:01:56;;;;;;;29.45;21.25;;;;;;;23.61;100.00;101085.56;5069801;28;20100;-61
2023/08/19 04:04:21;;;;;;;23.15;19.52;;;;;;;23.66;100.00;101091.41;5070358;28;20021;-61
2023/08/19 04:06:46;;;;;;;24.52;21.13;;;;;;;23.71;100.00;101097.25;5069932;28;20099;-63
2023/08/19 04:09:12;;;;;;;24.58;20.48;;;;;;;23.70;100.00;101092.84;5069425;28;20040;-61
2023/08/19 04:11:37;;;;;;;27.02;19.88;;;;;;;23.75;100.00;101092.44;5069094;28;20038;-61
2023/08/19 04:14:05;;;;;;;24.95;19.48;;;;;;;23.76;100.00;101091.47;5084754;28;20043;-61
2023/08/19 04:16:31;;;;;;;23.17;18.37;;;;;;;23.79;100.00;101085.81;5089044;28;20402;-60
2023/08/19 04:18:56;;;;;;;22.63;18.27;;;;;;;23.83;100.00;101087.25;5088855;28;20028;-62
2023/08/19 04:21:21;;;;;;;22.30;18.17;;;;;;;23.89;100.00;101088.56;5089645;28;20040;-63
2023/08/19 04:23:47;;;;;;;22.48;19.73;;;;;;;23.88;100.00;101096.75;5086970;28;20123;-60
2023/08/19 04:26:12;;;;;;;23.90;19.17;;;;;;;23.86;100.00;101088.81;5088614;28;20032;-60
2023/08/19 04:28:37;;;;;;;21.13;18.88;;;;;;;23.87;100.00;101087.81;5087364;28;20118;-60
2023/08/19 04:31:08;;;;;;;23.75;17.63;;;;;;;23.88;100.00;101081.47;5089470;28;20024;-60
2023/08/19 04:33:34;;;;;;;24.27;17.40;;;;;;;23.91;100.00;101083.91;5088193;28;20123;-60
2023/08/19 04:45:58;;;;;;;24.30;18.70;;;;;;;23.90;100.00;101087.56;5089601;28;20058;-62
2023/08/19 04:48:35;;;;;;;23.83;17.77;;;;;;;23.93;100.00;101081.91;5085377;28;20123;-62
2023/08/19 04:51:01;;;;;;;19.25;16.15;;;;;;;23.95;100.00;101084.47;5088219;28;20127;-60
2023/08/19 05:00:35;;;;;;;23.30;17.15;;;;;;;24.00;100.00;101078.69;5085753;28;20133;-61
2023/08/19 05:03:21;;;;;;;20.98;15.57;;;;;;;24.04;100.00;101067.53;5082270;28;20518;-60
2023/08/19 05:05:47;;;;;;;22.10;16.05;;;;;;;24.09;100.00;101085.97;5086274;28;20084;-62
2023/08/19 05:15:13;;;;;;;20.08;13.82;;;;;;;24.16;100.00;101100.59;5087256;28;20437;-61
2023/08/19 05:21:18;;;;;;;20.95;16.13;;;;;;;24.14;100.00;101099.88;5078742;28;20089;-60
2023/08/19 05:23:44;;;;;;;18.40;13.73;;;;;;;24.13;100.00;101095.50;5087457;28;20044;-63
2023/08/19 05:26:09;;;;;;;20.48;15.90;;;;;;;24.05;100.00;101090.75;5087438;28;20709;-61
2023/08/19 05:28:34;;;;;;;17.98;14.52;;;;;;;24.06;100.00;101108.63;5085695;28;20024;-61
2023/08/19 05:31:00;;;;;;;17.77;15.85;;;;;;;24.03;100.00;101105.34;5087654;28;20028;-61
2023/08/19 05:33:25;;;;;;;21.63;16.40;;;;;;;23.98;100.00;101094.97;5086993;28;20371;-62
2023/08/19 05:35:51;;;;;;;16.88;15.05;;;;;;;24.00;100.00;101102.91;5087177;28;20024;-59
2023/08/19 05:38:16;;;;;;;20.13;17.08;;;;;;;23.98;100.00;101098.53;5086653;28;20035;-61
2023/08/19 05:40:41;;;;;;;24.15;17.85;;;;;;;23.92;100.00;101106.25;5086742;28;20751;-61
2023/08/19 05:43:07;;;;;;;19.17;16.80;;;;;;;23.88;100.00;101108.38;5086031;28;20101;-62
2023/08/19 05:45:33;;;;;;;20.02;16.60;;;;;;;23.90;100.00;101117.16;5085968;28;20474;-63
2023/08/19 05:47:58;;;;;;;19.52;17.08;;;;;;;24.00;100.00;101121.75;5085751;28;20020;-64
2023/08/19 05:50:24;;;;;;;20.55;18.20;;;;;;;23.97;100.00;101121.03;5086325;28;20020;-63
2023/08/19 05:52:49;;;;;;;21.77;15.93;;;;;;;24.06;100.00;101113.16;5086672;28;20024;-63
2023/08/19 05:55:16;;;;;;;20.73;17.05;;;;;;;24.16;100.00;101119.44;5083467;28;20028;-62
2023/08/19 05:57:41;;;;;;;18.10;15.93;;;;;;;24.26;100.00;101124.03;5085266;28;20382;-63
2023/08/19 06:00:07;;;;;;;17.50;15.60;;;;;;;24.34;100.00;101127.75;5084399;28;20031;-61
2023/08/19 06:02:33;;;;;;;20.98;17.20;;;;;;;24.44;100.00;101122.38;5084967;28;20069;-61
2023/08/19 06:04:58;;;;;;;24.80;17.13;;;;;;;24.55;100.00;101137.59;5084056;28;20343;-60
2023/08/19 06:07:26;;;;;;;18.77;15.98;;;;;;;24.64;100.00;101144.00;5079244;28;20024;-62
2023/08/19 06:09:51;;;;;;;18.95;16.40;;;;;;;24.66;100.00;101142.03;5074053;28;20056;-63
2023/08/19 06:12:17;;;;;;;18.13;14.90;;;;;;;24.74;100.00;101150.25;5084310;28;20367;-61
2023/08/19 06:14:42;;;;;;;19.15;15.48;;;;;;;24.86;100.00;101147.44;5085178;28;20051;-61
2023/08/19 06:17:08;;;;;;;19.83;16.58;;;;;;;24.82;100.00;101148.72;5086169;28;20048;-62
2023/08/19 06:19:33;;;;;;;19.05;15.95;;;;;;;24.86;100.00;101136.66;5080962;28;20028;-62
2023/08/19 06:21:58;;;;;;;20.27;16.25;;;;;;;25.02;100.00;101129.91;5085045;28;20020;-62
2023/08/19 06:24:23;;;;;;;19.65;16.08;;;;;;;25.11;100.00;101138.00;5082010;28;20102;-62
2023/08/19 06:26:49;;;;;;;23.65;16.15;;;;;;;25.15;100.00;101148.50;5084845;28;20043;-62
2023/08/19 06:29:14;;;;;;;18.88;16.38;;;;;;;25.26;100.00;101148.38;5083660;28;20043;-62
2023/08/19 06:31:40;;;;;;;20.40;17.20;;;;;;;25.28;100.00;101167.13;5083661;28;20028;-62
2023/08/19 06:34:06;;;;;;;18.55;15.90;;;;;;;25.24;100.00;101167.41;5084866;28;20060;-59
2023/08/19 06:36:33;;;;;;;16.83;15.10;;;;;;;25.26;100.00;101158.31;5084955;28;20489;-61
2023/08/19 06:39:05;;;;;;;17.20;14.30;;;;;;;25.35;100.00;101162.84;5083247;28;20020;-62
2023/08/19 06:44:20;;;;;;;15.68;14.07;;;;;;;25.44;100.00;101167.41;5078994;28;20129;-62
2023/08/19 06:46:46;;;;;;;16.45;14.48;;;;;;;25.45;100.00;101174.50;5082886;28;20339;-62
2023/08/19 06:49:11;;;;;;;19.70;15.98;;;;;;;25.36;100.00;101169.94;5085354;28;20052;-61
2023/08/19 06:51:37;;;;;;;19.08;14.45;;;;;;;25.36;100.00;101159.16;5082778;28;20036;-63
2023/08/19 06:54:36;;;;;;;15.65;13.82;;;;;;;25.19;100.00;101164.25;5083838;28;20021;-62
2023/08/19 06:57:09;;;;;;;24.23;15.45;;;;;;;25.09;100.00;101176.88;5082319;28;20505;-60
2023/08/19 06:59:37;;;;;;;18.58;14.68;;;;;;;25.11;100.00;101161.44;5082450;28;20111;-62
2023/08/19 07:02:03;;;;;;;19.27;15.68;;;;;;;24.99;100.00;101168.78;5084380;28;20016;-62
2023/08/19 07:04:29;;;;;;;18.08;15.73;;;;;;;25.09;100.00;101190.34;5081936;28;20043;-62
2023/08/19 07:06:56;;;;;;;23.08;17.40;;;;;;;24.97;100.00;101198.56;5084388;28;20070;-62
2023/08/19 07:09:23;;;;;;;20.90;16.70;;;;;;;25.05;100.00;101187.09;5083415;28;20138;-61
2023/08/19 07:11:51;;;;;;;20.08;16.08;;;;;;;25.09;100.00;101188.53;5085227;28;20020;-62
2023/08/19 07:14:16;;;;;;;17.83;15.40;;;;;;;25.24;100.00;101198.91;5085354;28;20020;-63
2023/08/19 07:16:42;;;;;;;21.42;15.73;;;;;;;25.44;100.00;101202.47;5085436;28;20347;-62
2023/08/19 07:19:10;;;;;;;21.50;15.02;;;;;;;25.55;100.00;101201.47;5068158;28;20032;-60
2023/08/19 07:21:35;;;;;;;19.08;16.42;;;;;;;25.61;100.00;101208.16;5084703;28;20043;-61
2023/08/19 07:24:02;;;;;;;20.17;14.70;;;;;;;25.80;100.00;101219.94;5085679;28;20020;-61
2023/08/19 07:26:28;;;;;;;18.58;15.25;;;;;;;25.93;100.00;101225.03;5084540;28;20028;-62
2023/08/19 07:32:15;;;;;;;15.65;13.63;;;;;;;26.12;100.00;101225.00;5084622;28;20047;-62
2023/08/19 07:35:05;;;;;;;15.93;13.13;;;;;;;26.04;100.00;101215.94;5089659;28;20402;-61
2023/08/19 07:40:52;;;;;;;16.15;13.32;;;;;;;26.23;100.00;101210.50;5087240;28;20078;-61
2023/08/19 07:43:18;;;;;;;18.60;12.98;;;;;;;26.37;100.00;101219.16;5087938;28;20028;-60
2023/08/19 07:49:05;;;;;;;19.67;12.88;;;;;;;26.27;100.00;101221.84;5086580;28;20050;-59
2023/08/19 07:51:30;;;;;;;18.35;12.82;;;;;;;26.28;100.00;101233.50;5089224;28;20036;-63
2023/08/19 07:57:59;;;;;;;14.48;10.45;;;;;;;26.56;100.00;101266.00;5081702;28;20109;-61
2023/08/19 08:03:46;;;;;;;14.93;9.98;;;;;;;26.77;100.00;101256.81;5069553;28;20055;-62
2023/08/19 08:06:12;;;;;;;12.27;10.18;;;;;;;26.85;100.00;101267.75;5083489;28;20446;-59
2023/08/19 08:08:37;;;;;;;15.68;9.90;;;;;;;26.79;100.00;101269.16;5088461;28;20051;-59
2023/08/19 08:11:03;;;;;;;15.73;11.23;;;;;;;26.72;100.00;101276.16;5074940;28;20028;-66
2023/08/19 08:13:29;;;;;;;13.73;11.23;;;;;;;26.61;100.00;101278.06;5068273;28;20355;-62
2023/08/19 08:15:55;;;;;;;17.92;12.70;;;;;;;26.31;100.00;101279.97;5074088;28;20035;-62
2023/08/19 08:18:20;;;;;;;16.48;12.00;;;;;;;26.32;100.00;101278.16;5088860;28;20029;-61
2023/08/19 08:20:45;;;;;;;19.40;11.68;;;;;;;26.33;100.00;101274.44;5087779;28;20082;-63
2023/08/19 08:23:11;;;;;;;17.92;11.43;;;;;;;26.36;100.00;101285.81;5088620;28;20050;-63
2023/08/19 08:25:37;;;;;;;13.88;11.93;;;;;;;26.34;100.00;101284.28;5088425;28;20062;-64
2023/08/19 08:28:03;;;;;;;17.95;10.68;;;;;;;26.39;100.00;101287.38;5086662;28;20039;-61
2023/08/19 08:30:28;;;;;;;16.00;12.55;;;;;;;26.41;100.00;101287.22;5087805;28;20047;-67
2023/08/19 08:32:53;;;;;;;22.63;12.13;;;;;;;26.61;100.00;101298.84;5082875;28;20028;-63
2023/08/19 08:35:19;;;;;;;20.73;14.13;;;;;;;26.82;100.00;101300.47;5088424;28;20094;-64
2023/08/19 08:37:44;;;;;;;20.40;11.77;;;;;;;26.89;100.00;101309.69;5087699;28;20611;-66
2023/08/19 08:40:10;;;;;;;15.38;10.35;;;;;;;27.03;100.00;101302.94;5088382;28;20030;-63
2023/08/19 08:42:35;;;;;;;15.00;9.82;;;;;;;27.03;100.00;101318.34;5085530;28;20157;-61
2023/08/19 08:45:25;;;;;;;13.52;9.27;;;;;;;26.97;100.00;101336.81;5092833;28;20087;-60
2023/08/19 08:47:50;;;;;;;14.30;11.02;;;;;;;27.18;100.00;101338.47;5086569;28;20058;-61
2023/08/19 08:50:16;;;;;;;15.68;9.77;;;;;;;27.35;100.00;101344.94;5085966;28;20027;-66
2023/08/19 08:52:41;;;;;;;12.02;8.68;;;;;;;27.28;100.00;101354.66;5086834;28;20077;-61
2023/08/19 08:55:09;;;;;;;10.45;7.60;;;;;;;27.38;100.00;101352.75;5088127;28;20028;-66
2023/08/19 08:57:34;;;;;;;12.15;6.97;;;;;;;27.35;100.00;101354.88;5086669;28;20027;-65
2023/08/19 08:59:59;;;;;;;9.68;6.05;;;;;;;27.11;100.00;101370.66;5087921;28;20028;-64
2023/08/19 09:02:25;;;;;;;5.55;4.70;;;;;;;26.83;100.00;101373.31;5087588;28;20066;-62
2023/08/19 09:04:51;;;;;;;6.75;4.65;;;;;;;26.81;100.00;101363.63;5068145;28;20028;-62
2023/08/19 09:07:39;;;;;;;4.90;4.40;;;;;;;26.80;100.00;101378.13;5067699;28;20473;-64
2023/08/19 09:10:15;;;;;;;5.20;4.13;;;;;;;26.68;100.00;101386.44;5083992;28;20489;-66
2023/08/19 09:12:53;;;;;;;4.47;4.07;;;;;;;26.56;100.00;101401.09;5084815;28;20046;-64
2023/08/19 09:15:18;;;;;;;4.63;3.50;;;;;;;26.64;100.00;101393.13;5088199;28;20038;-63
2023/08/19 09:17:44;;;;;;;3.60;3.28;;;;;;;26.73;100.00;101402.22;5085736;28;20016;-63
2023/08/19 09:24:02;;;;;;;3.25;2.80;;;;;;;26.93;100.00;101416.53;5054755;28;20079;-65
2023/08/19 09:26:32;;;;;;;4.15;3.08;;;;;;;26.85;100.00;101419.13;5067282;28;20115;-65
2023/08/19 09:29:04;;;;;;;8.25;4.22;;;;;;;26.76;100.00;101431.66;5067398;28;20024;-66
2023/08/19 09:31:32;;;;;;;6.25;3.58;;;;;;;26.91;100.00;101418.50;5054924;28;20032;-65
2023/08/19 09:34:04;;;;;;;4.68;3.58;;;;;;;26.99;100.00;101440.31;5078114;28;20034;-64
2023/08/19 09:36:38;;;;;;;9.73;3.45;;;;;;;27.11;100.00;101430.16;5066886;28;20028;-64
2023/08/19 09:39:04;;;;;;;4.13;3.42;;;;;;;27.19;100.00;101436.69;5085576;28;20048;-64
2023/08/19 09:41:33;;;;;;;5.55;3.72;;;;;;;27.08;100.00;101448.53;5084306;28;20057;-64
2023/08/19 09:43:59;;;;;;;5.13;3.80;;;;;;;27.10;100.00;101449.25;5087014;28;20032;-65
2023/08/19 09:46:32;;;;;;;5.05;3.25;;;;;;;27.05;100.00;101440.69;5086377;28;20699;-66
2023/08/19 09:48:57;;;;;;;6.88;3.83;;;;;;;26.95;100.00;101441.56;5086451;28;20451;-66
2023/08/19 09:51:24;;;;;;;4.90;3.25;;;;;;;26.97;100.00;101447.66;5086156;28;20065;-65
2023/08/19 09:53:49;;;;;;;6.40;3.08;;;;;;;26.97;100.00;101468.47;5096848;28;20056;-67
2023/08/19 09:56:24;;;;;;;4.18;3.08;;;;;;;26.99;100.00;101459.22;5086672;28;20043;-66
2023/08/19 09:58:50;;;;;;;5.72;2.78;;;;;;;27.17;100.00;101461.19;5076621;28;20502;-65
2023/08/19 10:01:15;;;;;;;5.45;3.35;;;;;;;27.15;98.58;101479.38;5066187;28;20038;-65
2023/08/19 10:03:42;;;;;;;3.50;3.10;;;;;;;27.11;99.41;101464.47;5073141;28;20032;-64
2023/08/19 10:06:10;;;;;;;4.15;3.38;;;;;;;26.87;100.00;101466.63;5087256;28;20387;-64
2023/08/19 10:08:38;;;;;;;5.60;3.42;;;;;;;26.79;100.00;101463.78;5085824;28;20485;-62
2023/08/19 10:11:05;;;;;;;3.47;3.17;;;;;;;26.81;100.00;101471.75;5084408;28;20027;-64
2023/08/19 10:13:31;;;;;;;4.60;3.47;;;;;;;26.78;100.00;101485.56;5083595;28;20047;-65
2023/08/19 10:15:58;;;;;;;4.95;3.55;;;;;;;26.91;100.00;101490.66;5084496;28;20031;-64
2023/08/19 10:18:26;;;;;;;5.45;3.40;;;;;;;27.20;100.00;101497.88;5086123;28;20028;-63
2023/08/19 10:20:55;;;;;;;5.15;3.58;;;;;;;27.54;100.00;101496.50;5078207;28;20056;-66
2023/08/19 10:23:21;;;;;;;5.85;3.72;;;;;;;27.67;99.45;101516.00;5083314;28;20044;-64
2023/08/19 10:25:47;;;;;;;5.03;3.92;;;;;;;27.65;99.25;101518.00;5083727;28;20043;-65
2023/08/19 10:28:18;;;;;;;6.80;4.55;;;;;;;27.70;98.57;101518.41;5085374;28;20077;-64
2023/08/19 10:30:44;;;;;;;6.50;4.30;;;;;;;27.86;99.06;101517.75;5080466;28;20444;-66
2023/08/19 10:33:32;;;;;;;6.93;4.85;;;;;;;27.85;99.99;101516.06;5066404;28;20120;-65
2023/08/19 10:36:03;;;;;;;7.65;4.57;;;;;;;27.86;100.00;101519.59;5065933;28;20609;-61
2023/08/19 10:38:46;;;;;;;8.27;4.65;;;;;;;27.80;100.00;101509.38;5065830;28;20020;-66
2023/08/19 10:41:20;;;;;;;4.90;4.20;;;;;;;27.93;100.00;101506.34;5069623;28;20119;-64
2023/08/19 10:44:06;;;;;;;6.00;4.10;;;;;;;27.69;100.00;101523.97;5086474;28;20034;-65
2023/08/19 10:46:40;;;;;;;6.80;4.60;;;;;;;27.53;100.00;101513.72;5084749;28;20035;-66
2023/08/19 10:49:07;;;;;;;7.07;4.80;;;;;;;27.60;100.00;101517.56;5085979;28;20420;-66
2023/08/19 10:51:49;;;;;;;8.43;5.65;;;;;;;27.76;100.00;101498.00;5084822;28;20107;-64
2023/08/19 10:54:15;;;;;;;10.02;5.70;;;;;;;27.53;100.00;101497.50;5084462;28;20028;-62
2023/08/19 10:57:09;;;;;;;7.75;5.85;;;;;;;27.44;100.00;101501.94;5077976;28;20020;-66
2023/08/19 10:59:35;;;;;;;8.80;5.00;;;;;;;27.18;100.00;101516.97;5065729;28;20482;-64
2023/08/19 11:02:01;;;;;;;7.25;4.63;;;;;;;27.28;100.00;101533.19;5073382;28;20032;-63
2023/08/19 11:04:27;;;;;;;6.95;4.65;;;;;;;27.19;100.00;101558.41;5089448;28;20422;-64
2023/08/19 11:06:53;;;;;;;7.47;4.35;;;;;;;27.10;100.00;101557.41;5089350;28;20465;-62
2023/08/19 11:09:18;;;;;;;8.60;4.95;;;;;;;27.00;100.00;101568.25;5090480;28;20106;-64
2023/08/19 11:11:44;;;;;;;9.63;5.25;;;;;;;27.00;100.00;101574.50;5085140;28;20147;-64
2023/08/19 11:14:16;;;;;;;7.45;5.40;;;;;;;27.01;100.00;101597.00;5085965;28;20474;-65
2023/08/19 11:16:51;;;;;;;9.57;5.15;;;;;;;26.75;100.00;101602.91;5080531;28;20032;-63
2023/08/19 11:19:17;;;;;;;5.57;3.85;;;;;;;26.63;100.00;101610.31;5081985;28;20058;-62
2023/08/19 11:21:43;;;;;;;7.25;3.05;;;;;;;26.57;100.00;101595.50;5075759;28;20533;-63
2023/08/19 11:24:09;;;;;;;7.97;2.47;;;;;;;26.70;100.00;101614.16;5096254;28;20131;-64
2023/08/19 11:26:44;;;;;;;6.70;2.28;;;;;;;26.75;100.00;101630.81;5088563;28;20073;-63
2023/08/19 11:29:10;;;;;;;5.22;2.08;;;;;;;26.63;99.05;101631.91;5088326;28;20077;-61
2023/08/19 11:31:37;;;;;;;7.43;2.35;;;;;;;26.62;98.07;101636.50;5088840;28;20023;-62
2023/08/19 11:34:10;;;;;;;4.97;1.90;;;;;;;26.40;94.66;101637.56;5087619;28;20039;-63
2023/08/19 11:36:36;;;;;;;4.28;1.80;;;;;;;26.33;94.80;101653.47;5088518;28;20035;-63
2023/08/19 11:39:03;;;;;;;8.60;2.90;;;;;;;26.17;98.02;101637.75;5087977;28;20024;-61
2023/08/19 11:41:29;;;;;;;7.63;2.73;;;;;;;26.06;100.00;101635.97;5085658;28;20020;-60
2023/08/19 11:43:54;;;;;;;5.15;2.70;;;;;;;25.73;100.00;101633.41;5087023;28;20539;-63
2023/08/19 11:46:20;;;;;;;11.30;3.30;;;;;;;25.71;100.00;101635.38;5088862;28;20060;-62
2023/08/19 11:48:46;;;;;;;11.02;3.20;;;;;;;25.78;100.00;101648.31;5088208;28;20028;-62
2023/08/19 11:51:12;;;;;;;11.40;3.55;;;;;;;25.77;100.00;101662.81;5089068;28;20490;-60
2023/08/19 11:53:40;;;;;;;12.68;3.47;;;;;;;25.77;100.00;101662.81;5088417;28;20038;-56
2023/08/19 11:56:06;;;;;;;7.40;2.30;;;;;;;25.59;97.84;101687.69;5088476;28;20099;-63
2023/08/19 11:58:48;;;;;;;8.50;2.13;;;;;;;25.33;92.47;101698.81;5088103;28;20531;-63
2023/08/19 12:01:13;;;;;;;6.65;2.25;;;;;;;25.13;94.19;101687.84;5088599;28;20386;-60
2023/08/19 12:03:47;;;;;;;6.43;1.73;;;;;;;24.93;95.16;101706.56;5087939;28;20016;-62
2023/08/19 12:06:13;;;;;;;6.68;2.30;;;;;;;24.72;97.69;101712.66;5087431;28;20028;-64
2023/08/19 12:08:39;;;;;;;11.10;2.13;;;;;;;24.54;98.51;101743.78;5090762;28;20020;-63
2023/08/19 12:11:05;;;;;;;8.07;1.83;;;;;;;24.41;100.00;101752.81;5093606;28;20052;-60
2023/08/19 12:13:30;;;;;;;11.45;2.67;;;;;;;24.51;100.00;101768.28;5101572;28;20062;-61
2023/08/19 12:15:56;;;;;;;10.15;2.58;;;;;;;24.13;100.00;101776.53;5106710;28;20401;-64
2023/08/19 12:18:21;;;;;;;7.28;2.45;;;;;;;24.16;100.00;101776.31;5091983;28;20115;-61
2023/08/19 12:20:47;;;;;;;10.70;3.00;;;;;;;24.10;100.00;101765.97;5092270;28;20055;-60
2023/08/19 12:23:13;;;;;;;9.18;2.80;;;;;;;23.82;100.00;101754.66;5110567;27;20052;-58
2023/08/19 12:25:50;;;;;;;9.32;2.30;;;;;;;23.87;100.00;101730.91;5095328;28;20551;-61
2023/08/19 12:28:16;;;;;;;11.52;3.05;;;;;;;23.82;100.00;101746.56;5090125;28;20032;-62